sensor_id;sensor_type;location;lat;lon;timestamp;P1;durP1;ratioP1;P2;durP2;ratioP2
20497;SDS011;10407;53.238;10.448;2023-10-13T00:01:30;132.17;;;27.47;;
20497;SDS011;10407;53.238;10.448;2023-10-13T00:03:58;142.53;;;27.57;;
20497;SDS011;10407;53.238;10.448;2023-10-13T00:06:26;141.07;;;29.10;;
20497;SDS011;10407;53.238;10.448;2023-10-13T00:08:53;125.97;;;27.00;;
20497;SDS011;10407;53.238;10.448;2023-10-13T00:11:21;132.60;;;31.30;;
20497;SDS011;10407;53.238;10.448;2023-10-13T00:13:48;128.50;;;30.03;;
20497;SDS011;10407;53.238;10.448;2023-10-13T00:16:20;134.33;;;30.90;;
20497;SDS011;10407;53.238;10.448;2023-10-13T00:18:49;144.83;;;32.60;;
20497;SDS011;10407;53.238;10.448;2023-10-13T00:21:19;130.67;;;32.43;;
20497;SDS011;10407;53.238;10.448;2023-10-13T00:23:48;130.27;;;29.13;;
20497;SDS011;10407;53.238;10.448;2023-10-13T00:26:22;133.00;;;33.27;;
20497;SDS011;10407;53.238;10.448;2023-10-13T00:28:54;136.57;;;31.97;;
20497;SDS011;10407;53.238;10.448;2023-10-13T00:31:36;139.57;;;32.87;;
20497;SDS011;10407;53.238;10.448;2023-10-13T00:34:06;138.47;;;34.07;;
20497;SDS011;10407;53.238;10.448;2023-10-13T00:36:38;150.50;;;38.00;;
20497;SDS011;10407;53.238;10.448;2023-10-13T00:39:08;134.97;;;33.27;;
20497;SDS011;10407;53.238;10.448;2023-10-13T00:41:37;147.10;;;35.73;;
20497;SDS011;10407;53.238;10.448;2023-10-13T00:44:19;139.87;;;35.50;;
20497;SDS011;10407;53.238;10.448;2023-10-13T00:46:48;135.57;;;34.87;;
20497;SDS011;10407;53.238;10.448;2023-10-13T00:49:18;139.60;;;36.40;;
20497;SDS011;10407;53.238;10.448;2023-10-13T00:51:47;140.00;;;37.60;;
20497;SDS011;10407;53.238;10.448;2023-10-13T00:54:15;137.27;;;38.37;;
20497;SDS011;10407;53.238;10.448;2023-10-13T00:56:46;140.10;;;35.87;;
20497;SDS011;10407;53.238;10.448;2023-10-13T00:59:16;141.27;;;40.80;;
20497;SDS011;10407;53.238;10.448;2023-10-13T01:01:45;143.87;;;42.83;;
20497;SDS011;10407;53.238;10.448;2023-10-13T01:04:14;141.87;;;41.27;;
20497;SDS011;10407;53.238;10.448;2023-10-13T01:06:43;147.77;;;42.83;;
20497;SDS011;10407;53.238;10.448;2023-10-13T01:09:12;138.37;;;40.57;;
20497;SDS011;10407;53.238;10.448;2023-10-13T01:11:45;139.93;;;39.87;;
20497;SDS011;10407;53.238;10.448;2023-10-13T01:14:16;140.90;;;39.40;;
20497;SDS011;10407;53.238;10.448;2023-10-13T01:16:46;140.23;;;42.77;;
20497;SDS011;10407;53.238;10.448;2023-10-13T01:19:16;145.50;;;41.97;;
20497;SDS011;10407;53.238;10.448;2023-10-13T01:21:47;150.77;;;42.10;;
20497;SDS011;10407;53.238;10.448;2023-10-13T01:24:15;142.93;;;42.10;;
20497;SDS011;10407;53.238;10.448;2023-10-13T01:26:44;138.43;;;41.27;;
20497;SDS011;10407;53.238;10.448;2023-10-13T01:29:13;148.43;;;40.67;;
20497;SDS011;10407;53.238;10.448;2023-10-13T01:31:41;152.30;;;47.33;;
20497;SDS011;10407;53.238;10.448;2023-10-13T01:34:16;157.23;;;47.30;;
20497;SDS011;10407;53.238;10.448;2023-10-13T01:36:48;147.47;;;44.30;;
20497;SDS011;10407;53.238;10.448;2023-10-13T01:39:20;145.50;;;43.17;;
20497;SDS011;10407;53.238;10.448;2023-10-13T01:41:50;142.43;;;44.50;;
20497;SDS011;10407;53.238;10.448;2023-10-13T01:44:19;142.83;;;43.07;;
20497;SDS011;10407;53.238;10.448;2023-10-13T01:46:47;146.20;;;45.97;;
20497;SDS011;10407;53.238;10.448;2023-10-13T01:49:15;148.30;;;43.90;;
20497;SDS011;10407;53.238;10.448;2023-10-13T01:51:42;138.47;;;44.27;;
20497;SDS011;10407;53.238;10.448;2023-10-13T01:54:11;145.93;;;45.87;;
20497;SDS011;10407;53.238;10.448;2023-10-13T01:56:41;139.60;;;42.00;;
20497;SDS011;10407;53.238;10.448;2023-10-13T01:59:10;147.17;;;46.00;;
20497;SDS011;10407;53.238;10.448;2023-10-13T02:01:38;140.60;;;44.20;;
20497;SDS011;10407;53.238;10.448;2023-10-13T02:04:07;151.53;;;50.23;;
20497;SDS011;10407;53.238;10.448;2023-10-13T02:06:36;143.77;;;45.90;;
20497;SDS011;10407;53.238;10.448;2023-10-13T02:09:07;165.97;;;51.13;;
20497;SDS011;10407;53.238;10.448;2023-10-13T02:11:43;141.73;;;40.97;;
20497;SDS011;10407;53.238;10.448;2023-10-13T02:14:12;149.60;;;46.60;;
20497;SDS011;10407;53.238;10.448;2023-10-13T02:16:43;149.80;;;46.33;;
20497;SDS011;10407;53.238;10.448;2023-10-13T02:19:16;156.60;;;49.90;;
20497;SDS011;10407;53.238;10.448;2023-10-13T02:21:45;149.13;;;49.03;;
20497;SDS011;10407;53.238;10.448;2023-10-13T02:24:14;146.57;;;52.40;;
20497;SDS011;10407;53.238;10.448;2023-10-13T02:26:46;142.80;;;45.47;;
20497;SDS011;10407;53.238;10.448;2023-10-13T02:29:14;148.70;;;50.30;;
20497;SDS011;10407;53.238;10.448;2023-10-13T02:31:43;144.00;;;47.37;;
20497;SDS011;10407;53.238;10.448;2023-10-13T02:34:15;150.07;;;48.47;;
20497;SDS011;10407;53.238;10.448;2023-10-13T02:36:44;143.70;;;42.37;;
20497;SDS011;10407;53.238;10.448;2023-10-13T02:39:15;149.03;;;44.80;;
20497;SDS011;10407;53.238;10.448;2023-10-13T02:41:45;152.60;;;46.20;;
20497;SDS011;10407;53.238;10.448;2023-10-13T02:44:16;145.27;;;43.10;;
20497;SDS011;10407;53.238;10.448;2023-10-13T02:46:48;143.23;;;41.27;;
20497;SDS011;10407;53.238;10.448;2023-10-13T02:49:16;137.07;;;37.30;;
20497;SDS011;10407;53.238;10.448;2023-10-13T02:51:45;145.83;;;40.40;;
20497;SDS011;10407;53.238;10.448;2023-10-13T02:54:12;151.07;;;44.10;;
20497;SDS011;10407;53.238;10.448;2023-10-13T02:56:45;148.20;;;38.47;;
20497;SDS011;10407;53.238;10.448;2023-10-13T02:59:17;136.60;;;37.23;;
20497;SDS011;10407;53.238;10.448;2023-10-13T03:01:46;138.97;;;36.10;;
20497;SDS011;10407;53.238;10.448;2023-10-13T03:04:15;141.97;;;39.13;;
20497;SDS011;10407;53.238;10.448;2023-10-13T03:06:45;133.63;;;35.37;;
20497;SDS011;10407;53.238;10.448;2023-10-13T03:09:13;141.43;;;35.60;;
20497;SDS011;10407;53.238;10.448;2023-10-13T03:11:42;135.93;;;35.30;;
20497;SDS011;10407;53.238;10.448;2023-10-13T03:14:18;141.40;;;34.90;;
20497;SDS011;10407;53.238;10.448;2023-10-13T03:16:59;141.07;;;34.23;;
20497;SDS011;10407;53.238;10.448;2023-10-13T03:19:38;139.27;;;37.40;;
20497;SDS011;10407;53.238;10.448;2023-10-13T03:22:19;139.57;;;35.60;;
20497;SDS011;10407;53.238;10.448;2023-10-13T03:24:49;147.07;;;39.40;;
20497;SDS011;10407;53.238;10.448;2023-10-13T03:27:18;137.57;;;34.60;;
20497;SDS011;10407;53.238;10.448;2023-10-13T03:29:47;143.83;;;38.07;;
20497;SDS011;10407;53.238;10.448;2023-10-13T03:32:17;145.90;;;35.93;;
20497;SDS011;10407;53.238;10.448;2023-10-13T03:34:45;143.17;;;36.70;;
20497;SDS011;10407;53.238;10.448;2023-10-13T03:37:18;142.93;;;34.77;;
20497;SDS011;10407;53.238;10.448;2023-10-13T03:39:48;141.97;;;34.60;;
20497;SDS011;10407;53.238;10.448;2023-10-13T03:42:17;137.60;;;33.93;;
20497;SDS011;10407;53.238;10.448;2023-10-13T03:44:45;143.73;;;34.90;;
20497;SDS011;10407;53.238;10.448;2023-10-13T03:47:13;143.53;;;38.43;;
20497;SDS011;10407;53.238;10.448;2023-10-13T03:49:44;150.27;;;37.40;;
20497;SDS011;10407;53.238;10.448;2023-10-13T03:52:14;159.53;;;38.47;;
20497;SDS011;10407;53.238;10.448;2023-10-13T03:54:43;151.97;;;38.73;;
20497;SDS011;10407;53.238;10.448;2023-10-13T03:57:12;149.57;;;36.60;;
20497;SDS011;10407;53.238;10.448;2023-10-13T03:59:41;148.93;;;38.07;;
20497;SDS011;10407;53.238;10.448;2023-10-13T04:02:10;141.47;;;36.60;;
20497;SDS011;10407;53.238;10.448;2023-10-13T04:04:40;143.87;;;34.20;;
20497;SDS011;10407;53.238;10.448;2023-10-13T04:07:18;149.73;;;35.23;;
20497;SDS011;10407;53.238;10.448;2023-10-13T04:09:53;150.90;;;38.77;;
20497;SDS011;10407;53.238;10.448;2023-10-13T04:12:39;141.57;;;40.60;;
20497;SDS011;10407;53.238;10.448;2023-10-13T04:15:24;152.70;;;35.60;;
20497;SDS011;10407;53.238;10.448;2023-10-13T04:17:54;145.27;;;38.90;;
20497;SDS011;10407;53.238;10.448;2023-10-13T04:20:21;155.33;;;36.87;;
20497;SDS011;10407;53.238;10.448;2023-10-13T04:22:57;151.93;;;38.63;;
20497;SDS011;10407;53.238;10.448;2023-10-13T04:25:27;155.67;;;36.90;;
20497;SDS011;10407;53.238;10.448;2023-10-13T04:33:28;156.10;;;36.00;;
20497;SDS011;10407;53.238;10.448;2023-10-13T04:36:05;164.20;;;38.27;;
20497;SDS011;10407;53.238;10.448;2023-10-13T04:38:40;157.87;;;38.23;;
20497;SDS011;10407;53.238;10.448;2023-10-13T04:41:11;152.13;;;38.90;;
20497;SDS011;10407;53.238;10.448;2023-10-13T04:43:40;159.77;;;41.97;;
20497;SDS011;10407;53.238;10.448;2023-10-13T04:46:25;159.60;;;44.50;;
20497;SDS011;10407;53.238;10.448;2023-10-13T04:49:03;153.20;;;40.57;;
20497;SDS011;10407;53.238;10.448;2023-10-13T04:51:32;158.03;;;43.73;;
20497;SDS011;10407;53.238;10.448;2023-10-13T04:54:18;161.67;;;42.40;;
20497;SDS011;10407;53.238;10.448;2023-10-13T04:56:47;173.50;;;40.03;;
20497;SDS011;10407;53.238;10.448;2023-10-13T04:59:32;159.00;;;40.97;;
20497;SDS011;10407;53.238;10.448;2023-10-13T05:02:04;162.43;;;44.30;;
20497;SDS011;10407;53.238;10.448;2023-10-13T05:04:46;165.33;;;41.77;;
20497;SDS011;10407;53.238;10.448;2023-10-13T05:07:33;160.30;;;41.50;;
20497;SDS011;10407;53.238;10.448;2023-10-13T05:10:19;165.90;;;44.63;;
20497;SDS011;10407;53.238;10.448;2023-10-13T05:13:04;171.17;;;46.53;;
20497;SDS011;10407;53.238;10.448;2023-10-13T05:15:50;165.33;;;44.30;;
20497;SDS011;10407;53.238;10.448;2023-10-13T05:18:36;165.27;;;42.50;;
20497;SDS011;10407;53.238;10.448;2023-10-13T05:21:22;169.03;;;44.20;;
20497;SDS011;10407;53.238;10.448;2023-10-13T05:24:07;170.87;;;46.90;;
20497;SDS011;10407;53.238;10.448;2023-10-13T05:26:53;175.00;;;43.90;;
20497;SDS011;10407;53.238;10.448;2023-10-13T05:29:40;168.50;;;41.37;;
20497;SDS011;10407;53.238;10.448;2023-10-13T05:32:26;167.97;;;43.87;;
20497;SDS011;10407;53.238;10.448;2023-10-13T05:35:12;166.40;;;44.00;;
20497;SDS011;10407;53.238;10.448;2023-10-13T05:37:58;161.10;;;42.63;;
20497;SDS011;10407;53.238;10.448;2023-10-13T05:40:53;168.97;;;47.37;;
20497;SDS011;10407;53.238;10.448;2023-10-13T05:43:41;167.70;;;44.57;;
20497;SDS011;10407;53.238;10.448;2023-10-13T05:46:27;165.43;;;42.47;;
20497;SDS011;10407;53.238;10.448;2023-10-13T05:49:06;162.27;;;42.10;;
20497;SDS011;10407;53.238;10.448;2023-10-13T05:51:36;159.97;;;43.20;;
20497;SDS011;10407;53.238;10.448;2023-10-13T05:54:10;170.40;;;42.27;;
20497;SDS011;10407;53.238;10.448;2023-10-13T05:56:42;165.50;;;44.67;;
20497;SDS011;10407;53.238;10.448;2023-10-13T05:59:32;172.23;;;46.67;;
20497;SDS011;10407;53.238;10.448;2023-10-13T06:02:20;169.90;;;45.13;;
20497;SDS011;10407;53.238;10.448;2023-10-13T06:05:07;159.57;;;41.47;;
20497;SDS011;10407;53.238;10.448;2023-10-13T06:07:57;160.17;;;44.30;;
20497;SDS011;10407;53.238;10.448;2023-10-13T06:10:43;164.30;;;46.37;;
20497;SDS011;10407;53.238;10.448;2023-10-13T06:13:29;155.67;;;41.87;;
20497;SDS011;10407;53.238;10.448;2023-10-13T06:16:15;158.20;;;45.93;;
20497;SDS011;10407;53.238;10.448;2023-10-13T06:19:02;160.13;;;40.37;;
20497;SDS011;10407;53.238;10.448;2023-10-13T06:21:48;155.53;;;40.87;;
20497;SDS011;10407;53.238;10.448;2023-10-13T06:24:34;159.23;;;45.80;;
20497;SDS011;10407;53.238;10.448;2023-10-13T06:27:20;154.30;;;42.17;;
20497;SDS011;10407;53.238;10.448;2023-10-13T06:30:05;156.10;;;43.97;;
20497;SDS011;10407;53.238;10.448;2023-10-13T06:32:33;154.40;;;41.40;;
20497;SDS011;10407;53.238;10.448;2023-10-13T06:35:03;165.87;;;44.10;;
20497;SDS011;10407;53.238;10.448;2023-10-13T06:37:32;169.83;;;45.47;;
20497;SDS011;10407;53.238;10.448;2023-10-13T06:40:03;156.93;;;45.33;;
20497;SDS011;10407;53.238;10.448;2023-10-13T06:42:33;158.50;;;44.83;;
20497;SDS011;10407;53.238;10.448;2023-10-13T06:45:01;150.17;;;43.30;;
20497;SDS011;10407;53.238;10.448;2023-10-13T06:47:30;149.20;;;41.57;;
20497;SDS011;10407;53.238;10.448;2023-10-13T06:49:58;163.50;;;44.43;;
20497;SDS011;10407;53.238;10.448;2023-10-13T06:52:26;153.67;;;43.20;;
20497;SDS011;10407;53.238;10.448;2023-10-13T06:54:56;153.17;;;42.43;;
20497;SDS011;10407;53.238;10.448;2023-10-13T06:57:25;159.07;;;42.17;;
20497;SDS011;10407;53.238;10.448;2023-10-13T06:59:52;150.67;;;40.10;;
20497;SDS011;10407;53.238;10.448;2023-10-13T07:02:21;146.50;;;40.90;;
20497;SDS011;10407;53.238;10.448;2023-10-13T07:04:49;143.33;;;37.50;;
20497;SDS011;10407;53.238;10.448;2023-10-13T07:07:22;140.77;;;37.80;;
20497;SDS011;10407;53.238;10.448;2023-10-13T07:09:49;142.20;;;36.27;;
20497;SDS011;10407;53.238;10.448;2023-10-13T07:12:24;144.27;;;38.33;;
20497;SDS011;10407;53.238;10.448;2023-10-13T07:14:56;144.07;;;39.37;;
20497;SDS011;10407;53.238;10.448;2023-10-13T07:17:41;139.87;;;36.07;;
20497;SDS011;10407;53.238;10.448;2023-10-13T07:20:10;153.07;;;39.90;;
20497;SDS011;10407;53.238;10.448;2023-10-13T07:22:40;146.33;;;41.23;;
20497;SDS011;10407;53.238;10.448;2023-10-13T07:25:10;140.03;;;37.10;;
20497;SDS011;10407;53.238;10.448;2023-10-13T07:27:39;144.53;;;39.97;;
20497;SDS011;10407;53.238;10.448;2023-10-13T07:30:07;140.90;;;37.00;;
20497;SDS011;10407;53.238;10.448;2023-10-13T07:32:40;144.77;;;39.07;;
20497;SDS011;10407;53.238;10.448;2023-10-13T07:35:16;142.00;;;38.23;;
20497;SDS011;10407;53.238;10.448;2023-10-13T07:37:46;142.10;;;36.43;;
20497;SDS011;10407;53.238;10.448;2023-10-13T07:40:21;139.97;;;39.13;;
20497;SDS011;10407;53.238;10.448;2023-10-13T07:42:54;141.37;;;38.97;;
20497;SDS011;10407;53.238;10.448;2023-10-13T07:45:23;142.17;;;41.93;;
20497;SDS011;10407;53.238;10.448;2023-10-13T07:47:53;142.37;;;39.37;;
20497;SDS011;10407;53.238;10.448;2023-10-13T07:50:20;140.20;;;38.17;;
20497;SDS011;10407;53.238;10.448;2023-10-13T07:52:51;142.27;;;37.97;;
20497;SDS011;10407;53.238;10.448;2023-10-13T07:55:26;138.20;;;39.60;;
20497;SDS011;10407;53.238;10.448;2023-10-13T07:57:55;137.37;;;36.43;;
20497;SDS011;10407;53.238;10.448;2023-10-13T08:00:25;141.73;;;36.97;;
20497;SDS011;10407;53.238;10.448;2023-10-13T08:03:06;139.70;;;38.20;;
20497;SDS011;10407;53.238;10.448;2023-10-13T08:05:45;138.47;;;35.23;;
20497;SDS011;10407;53.238;10.448;2023-10-13T08:08:33;138.27;;;36.03;;
20497;SDS011;10407;53.238;10.448;2023-10-13T08:11:08;136.27;;;35.27;;
20497;SDS011;10407;53.238;10.448;2023-10-13T08:13:51;134.60;;;35.47;;
20497;SDS011;10407;53.238;10.448;2023-10-13T08:16:24;132.67;;;35.80;;
20497;SDS011;10407;53.238;10.448;2023-10-13T08:18:57;136.60;;;35.67;;
20497;SDS011;10407;53.238;10.448;2023-10-13T08:21:27;132.50;;;36.47;;
20497;SDS011;10407;53.238;10.448;2023-10-13T08:23:56;137.00;;;34.63;;
20497;SDS011;10407;53.238;10.448;2023-10-13T08:26:26;131.80;;;34.97;;
20497;SDS011;10407;53.238;10.448;2023-10-13T08:28:59;129.30;;;30.27;;
20497;SDS011;10407;53.238;10.448;2023-10-13T08:31:47;138.80;;;30.23;;
20497;SDS011;10407;53.238;10.448;2023-10-13T08:34:17;129.20;;;29.87;;
20497;SDS011;10407;53.238;10.448;2023-10-13T08:36:47;130.83;;;32.17;;
20497;SDS011;10407;53.238;10.448;2023-10-13T08:39:14;129.90;;;30.17;;
20497;SDS011;10407;53.238;10.448;2023-10-13T08:41:50;126.33;;;28.83;;
20497;SDS011;10407;53.238;10.448;2023-10-13T08:44:26;124.80;;;28.00;;
20497;SDS011;10407;53.238;10.448;2023-10-13T08:47:01;126.87;;;28.07;;
20497;SDS011;10407;53.238;10.448;2023-10-13T08:49:32;126.87;;;28.37;;
20497;SDS011;10407;53.238;10.448;2023-10-13T08:52:01;124.10;;;25.70;;
20497;SDS011;10407;53.238;10.448;2023-10-13T08:54:37;123.73;;;28.10;;
20497;SDS011;10407;53.238;10.448;2023-10-13T08:57:07;124.03;;;26.03;;
20497;SDS011;10407;53.238;10.448;2023-10-13T08:59:53;121.97;;;25.53;;
20497;SDS011;10407;53.238;10.448;2023-10-13T09:02:21;121.97;;;25.60;;
20497;SDS011;10407;53.238;10.448;2023-10-13T09:04:51;122.87;;;26.80;;
20497;SDS011;10407;53.238;10.448;2023-10-13T09:07:29;126.53;;;29.50;;
20497;SDS011;10407;53.238;10.448;2023-10-13T09:09:58;126.37;;;25.90;;
20497;SDS011;10407;53.238;10.448;2023-10-13T09:12:28;127.00;;;25.33;;
20497;SDS011;10407;53.238;10.448;2023-10-13T09:15:05;122.97;;;26.40;;
20497;SDS011;10407;53.238;10.448;2023-10-13T09:17:42;123.53;;;27.40;;
20497;SDS011;10407;53.238;10.448;2023-10-13T09:20:14;123.40;;;28.20;;
20497;SDS011;10407;53.238;10.448;2023-10-13T09:22:53;124.13;;;26.00;;
20497;SDS011;10407;53.238;10.448;2023-10-13T09:25:33;123.20;;;23.57;;
20497;SDS011;10407;53.238;10.448;2023-10-13T09:28:10;122.87;;;29.23;;
20497;SDS011;10407;53.238;10.448;2023-10-13T09:30:52;123.13;;;23.70;;
20497;SDS011;10407;53.238;10.448;2023-10-13T09:33:22;121.17;;;25.30;;
20497;SDS011;10407;53.238;10.448;2023-10-13T09:36:05;124.80;;;26.30;;
20497;SDS011;10407;53.238;10.448;2023-10-13T09:38:34;136.63;;;27.77;;
20497;SDS011;10407;53.238;10.448;2023-10-13T09:41:04;120.13;;;25.60;;
20497;SDS011;10407;53.238;10.448;2023-10-13T09:43:37;126.37;;;26.60;;
20497;SDS011;10407;53.238;10.448;2023-10-13T09:46:06;123.80;;;27.20;;
20497;SDS011;10407;53.238;10.448;2023-10-13T09:48:45;132.70;;;30.27;;
20497;SDS011;10407;53.238;10.448;2023-10-13T09:51:16;129.37;;;27.93;;
20497;SDS011;10407;53.238;10.448;2023-10-13T09:53:57;129.10;;;27.80;;
20497;SDS011;10407;53.238;10.448;2023-10-13T09:56:28;122.93;;;26.80;;
20497;SDS011;10407;53.238;10.448;2023-10-13T09:59:14;125.17;;;29.37;;
20497;SDS011;10407;53.238;10.448;2023-10-13T10:01:40;126.60;;;34.00;;
20497;SDS011;10407;53.238;10.448;2023-10-13T10:04:20;129.50;;;32.10;;
20497;SDS011;10407;53.238;10.448;2023-10-13T10:06:52;130.37;;;32.67;;
20497;SDS011;10407;53.238;10.448;2023-10-13T10:09:28;129.37;;;35.27;;
20497;SDS011;10407;53.238;10.448;2023-10-13T10:17:40;126.20;;;29.40;;
20497;SDS011;10407;53.238;10.448;2023-10-13T10:20:10;130.03;;;28.87;;
20497;SDS011;10407;53.238;10.448;2023-10-13T10:22:57;124.60;;;30.77;;
20497;SDS011;10407;53.238;10.448;2023-10-13T10:25:30;125.53;;;28.97;;
20497;SDS011;10407;53.238;10.448;2023-10-13T10:28:05;131.10;;;31.03;;
20497;SDS011;10407;53.238;10.448;2023-10-13T10:30:38;127.60;;;28.60;;
20497;SDS011;10407;53.238;10.448;2023-10-13T10:33:04;125.30;;;27.90;;
20497;SDS011;10407;53.238;10.448;2023-10-13T10:35:34;127.00;;;30.70;;
20497;SDS011;10407;53.238;10.448;2023-10-13T10:38:13;131.13;;;28.53;;
20497;SDS011;10407;53.238;10.448;2023-10-13T10:40:57;131.80;;;29.57;;
20497;SDS011;10407;53.238;10.448;2023-10-13T10:43:44;132.47;;;28.30;;
20497;SDS011;10407;53.238;10.448;2023-10-13T10:46:14;126.47;;;27.63;;
20497;SDS011;10407;53.238;10.448;2023-10-13T10:48:43;123.63;;;28.77;;
20497;SDS011;10407;53.238;10.448;2023-10-13T10:51:12;124.63;;;26.97;;
20497;SDS011;10407;53.238;10.448;2023-10-13T10:53:50;133.53;;;36.63;;
20497;SDS011;10407;53.238;10.448;2023-10-13T10:56:23;124.30;;;28.27;;
20497;SDS011;10407;53.238;10.448;2023-10-13T10:58:59;129.03;;;29.47;;
20497;SDS011;10407;53.238;10.448;2023-10-13T11:01:23;134.93;;;28.10;;
20497;SDS011;10407;53.238;10.448;2023-10-13T11:03:54;142.30;;;29.00;;
20497;SDS011;10407;53.238;10.448;2023-10-13T11:06:28;121.97;;;25.03;;
20497;SDS011;10407;53.238;10.448;2023-10-13T11:09:06;126.27;;;30.63;;
20497;SDS011;10407;53.238;10.448;2023-10-13T11:11:54;127.00;;;30.43;;
20497;SDS011;10407;53.238;10.448;2023-10-13T11:14:27;128.33;;;33.23;;
20497;SDS011;10407;53.238;10.448;2023-10-13T11:16:56;133.30;;;34.43;;
20497;SDS011;10407;53.238;10.448;2023-10-13T11:19:34;127.80;;;33.00;;
20497;SDS011;10407;53.238;10.448;2023-10-13T11:22:15;128.07;;;32.70;;
20497;SDS011;10407;53.238;10.448;2023-10-13T11:25:02;130.03;;;32.30;;
20497;SDS011;10407;53.238;10.448;2023-10-13T11:27:38;126.13;;;30.07;;
20497;SDS011;10407;53.238;10.448;2023-10-13T11:30:17;169.67;;;30.87;;
20497;SDS011;10407;53.238;10.448;2023-10-13T11:33:05;132.27;;;32.33;;
20497;SDS011;10407;53.238;10.448;2023-10-13T11:35:35;130.83;;;33.10;;
20497;SDS011;10407;53.238;10.448;2023-10-13T11:38:27;127.77;;;30.67;;
20497;SDS011;10407;53.238;10.448;2023-10-13T11:41:04;127.07;;;29.40;;
20497;SDS011;10407;53.238;10.448;2023-10-13T11:43:34;130.33;;;31.03;;
20497;SDS011;10407;53.238;10.448;2023-10-13T11:46:24;126.40;;;26.33;;
20497;SDS011;10407;53.238;10.448;2023-10-13T11:49:04;124.50;;;29.27;;
20497;SDS011;10407;53.238;10.448;2023-10-13T11:51:45;123.63;;;24.00;;
20497;SDS011;10407;53.238;10.448;2023-10-13T11:54:20;129.47;;;24.37;;
20497;SDS011;10407;53.238;10.448;2023-10-13T11:56:49;121.47;;;23.87;;
20497;SDS011;10407;53.238;10.448;2023-10-13T11:59:17;129.87;;;25.10;;
20497;SDS011;10407;53.238;10.448;2023-10-13T12:01:45;125.23;;;25.93;;
20497;SDS011;10407;53.238;10.448;2023-10-13T12:04:31;124.10;;;25.40;;
20497;SDS011;10407;53.238;10.448;2023-10-13T12:07:18;128.93;;;27.67;;
20497;SDS011;10407;53.238;10.448;2023-10-13T12:09:46;128.33;;;25.60;;
20497;SDS011;10407;53.238;10.448;2023-10-13T12:12:20;125.87;;;25.30;;
20497;SDS011;10407;53.238;10.448;2023-10-13T12:14:51;129.27;;;28.67;;
20497;SDS011;10407;53.238;10.448;2023-10-13T12:17:25;130.70;;;27.03;;
20497;SDS011;10407;53.238;10.448;2023-10-13T12:19:56;130.17;;;25.83;;
20497;SDS011;10407;53.238;10.448;2023-10-13T12:22:26;123.97;;;26.80;;
20497;SDS011;10407;53.238;10.448;2023-10-13T12:24:55;123.30;;;26.70;;
20497;SDS011;10407;53.238;10.448;2023-10-13T12:27:23;125.90;;;28.57;;
20497;SDS011;10407;53.238;10.448;2023-10-13T12:30:05;127.70;;;28.37;;
20497;SDS011;10407;53.238;10.448;2023-10-13T12:32:36;126.10;;;28.87;;
20497;SDS011;10407;53.238;10.448;2023-10-13T12:35:05;126.57;;;25.13;;
20497;SDS011;10407;53.238;10.448;2023-10-13T12:37:35;127.33;;;25.10;;
20497;SDS011;10407;53.238;10.448;2023-10-13T12:40:12;128.83;;;27.73;;
20497;SDS011;10407;53.238;10.448;2023-10-13T12:42:58;124.77;;;22.87;;
20497;SDS011;10407;53.238;10.448;2023-10-13T12:45:45;129.13;;;25.97;;
20497;SDS011;10407;53.238;10.448;2023-10-13T12:48:32;155.97;;;27.77;;
20497;SDS011;10407;53.238;10.448;2023-10-13T12:51:19;122.87;;;23.70;;
20497;SDS011;10407;53.238;10.448;2023-10-13T12:54:01;128.60;;;24.33;;
20497;SDS011;10407;53.238;10.448;2023-10-13T12:56:33;122.17;;;24.70;;
20497;SDS011;10407;53.238;10.448;2023-10-13T12:59:02;136.70;;;24.57;;
20497;SDS011;10407;53.238;10.448;2023-10-13T13:01:31;123.97;;;23.30;;
20497;SDS011;10407;53.238;10.448;2023-10-13T13:04:00;132.40;;;26.73;;
20497;SDS011;10407;53.238;10.448;2023-10-13T13:06:29;129.10;;;27.50;;
20497;SDS011;10407;53.238;10.448;2023-10-13T13:08:57;132.53;;;23.40;;
20497;SDS011;10407;53.238;10.448;2023-10-13T13:11:26;127.10;;;24.73;;
20497;SDS011;10407;53.238;10.448;2023-10-13T13:13:56;136.10;;;25.20;;
20497;SDS011;10407;53.238;10.448;2023-10-13T13:16:24;140.10;;;26.83;;
20497;SDS011;10407;53.238;10.448;2023-10-13T13:18:53;128.80;;;24.67;;
20497;SDS011;10407;53.238;10.448;2023-10-13T13:21:20;130.30;;;24.60;;
20497;SDS011;10407;53.238;10.448;2023-10-13T13:23:53;129.60;;;25.60;;
20497;SDS011;10407;53.238;10.448;2023-10-13T13:26:24;131.40;;;24.30;;
20497;SDS011;10407;53.238;10.448;2023-10-13T13:28:51;136.17;;;26.60;;
20497;SDS011;10407;53.238;10.448;2023-10-13T13:31:21;128.17;;;25.60;;
20497;SDS011;10407;53.238;10.448;2023-10-13T13:33:57;130.70;;;30.53;;
20497;SDS011;10407;53.238;10.448;2023-10-13T13:36:24;134.00;;;26.37;;
20497;SDS011;10407;53.238;10.448;2023-10-13T13:38:52;126.57;;;27.33;;
20497;SDS011;10407;53.238;10.448;2023-10-13T13:41:21;128.67;;;25.30;;
20497;SDS011;10407;53.238;10.448;2023-10-13T13:43:49;129.87;;;25.90;;
20497;SDS011;10407;53.238;10.448;2023-10-13T13:46:19;129.10;;;24.80;;
20497;SDS011;10407;53.238;10.448;2023-10-13T13:48:55;126.30;;;22.63;;
20497;SDS011;10407;53.238;10.448;2023-10-13T13:51:27;128.17;;;26.77;;
20497;SDS011;10407;53.238;10.448;2023-10-13T13:53:57;128.20;;;24.37;;
20497;SDS011;10407;53.238;10.448;2023-10-13T13:56:25;125.37;;;25.53;;
20497;SDS011;10407;53.238;10.448;2023-10-13T13:58:54;132.47;;;25.63;;
20497;SDS011;10407;53.238;10.448;2023-10-13T14:01:22;129.20;;;27.33;;
20497;SDS011;10407;53.238;10.448;2023-10-13T14:03:52;130.77;;;26.10;;
20497;SDS011;10407;53.238;10.448;2023-10-13T14:06:23;139.87;;;23.27;;
20497;SDS011;10407;53.238;10.448;2023-10-13T14:08:55;132.93;;;23.33;;
20497;SDS011;10407;53.238;10.448;2023-10-13T14:11:29;135.20;;;26.67;;
20497;SDS011;10407;53.238;10.448;2023-10-13T14:16:57;127.03;;;24.60;;
20497;SDS011;10407;53.238;10.448;2023-10-13T14:19:33;130.37;;;25.33;;
20497;SDS011;10407;53.238;10.448;2023-10-13T14:22:03;132.63;;;24.43;;
20497;SDS011;10407;53.238;10.448;2023-10-13T14:24:32;129.30;;;21.57;;
20497;SDS011;10407;53.238;10.448;2023-10-13T14:27:03;125.83;;;25.37;;
20497;SDS011;10407;53.238;10.448;2023-10-13T14:29:35;125.10;;;22.97;;
20497;SDS011;10407;53.238;10.448;2023-10-13T14:32:07;134.03;;;23.90;;
20497;SDS011;10407;53.238;10.448;2023-10-13T14:34:40;130.90;;;25.90;;
20497;SDS011;10407;53.238;10.448;2023-10-13T14:37:09;126.33;;;22.00;;
20497;SDS011;10407;53.238;10.448;2023-10-13T14:39:40;129.83;;;24.53;;
20497;SDS011;10407;53.238;10.448;2023-10-13T14:42:08;135.73;;;25.03;;
20497;SDS011;10407;53.238;10.448;2023-10-13T14:44:35;140.50;;;23.97;;
20497;SDS011;10407;53.238;10.448;2023-10-13T14:47:03;130.70;;;25.10;;